createdAt,value
2018-08-04T00:01:28.438Z,0.90
2018-08-04T00:03:57.332Z,0.83
2018-08-04T00:06:26.217Z,0.70
2018-08-04T00:08:59.919Z,0.80
2018-08-04T00:11:28.739Z,0.77
2018-08-04T00:13:57.605Z,0.90
2018-08-04T00:16:26.386Z,0.80
2018-08-04T00:18:55.234Z,0.80
2018-08-04T00:21:24.062Z,0.80
2018-08-04T00:23:53.107Z,0.70
2018-08-04T00:26:21.887Z,0.80
2018-08-04T00:28:50.658Z,0.70
2018-08-04T00:31:19.441Z,0.80
2018-08-04T00:33:48.230Z,0.70
2018-08-04T00:36:17.035Z,0.70
2018-08-04T00:38:45.830Z,0.90
2018-08-04T00:41:14.666Z,1.00
2018-08-04T00:43:43.558Z,0.77
2018-08-04T00:46:12.376Z,0.70
2018-08-04T00:48:41.244Z,0.63
2018-08-04T00:51:10.121Z,0.87
2018-08-04T00:53:38.913Z,0.73
2018-08-04T00:56:08.162Z,0.80
2018-08-04T00:58:37.042Z,0.83
2018-08-04T01:01:06.165Z,0.70
2018-08-04T01:03:35.146Z,0.90
2018-08-04T01:06:03.977Z,0.80
2018-08-04T01:08:32.842Z,0.73
2018-08-04T01:11:01.695Z,0.70
2018-08-04T01:13:30.614Z,0.90
2018-08-04T01:15:59.456Z,0.90
2018-08-04T01:18:28.262Z,0.90
2018-08-04T01:20:57.165Z,0.80
2018-08-04T01:23:25.995Z,0.80
2018-08-04T01:25:54.791Z,0.80
2018-08-04T01:28:23.905Z,0.80
2018-08-04T01:30:52.805Z,0.90
2018-08-04T01:33:21.638Z,0.57
2018-08-04T01:35:50.443Z,0.80
2018-08-04T01:38:19.259Z,0.77
2018-08-04T01:40:48.047Z,0.70
2018-08-04T01:43:16.861Z,0.70
2018-08-04T01:45:45.694Z,0.90
2018-08-04T01:48:14.501Z,0.70
2018-08-04T01:50:43.373Z,0.87
2018-08-04T01:53:12.179Z,0.70
2018-08-04T01:55:41.150Z,0.90
2018-08-04T01:58:09.971Z,0.90
2018-08-04T02:00:39.070Z,0.70
2018-08-04T02:03:07.862Z,0.70
2018-08-04T02:05:36.709Z,0.80
2018-08-04T02:08:10.538Z,0.70
2018-08-04T02:10:39.410Z,0.60
2018-08-04T02:13:08.438Z,0.73
2018-08-04T02:15:37.286Z,0.70
2018-08-04T02:18:06.150Z,0.70
2018-08-04T02:20:34.962Z,0.80
2018-08-04T02:23:03.888Z,0.63
2018-08-04T02:25:32.684Z,0.73
2018-08-04T02:28:01.529Z,0.80
2018-08-04T02:30:30.319Z,0.70
2018-08-04T02:32:59.158Z,0.80
2018-08-04T02:35:28.028Z,0.90
2018-08-04T02:37:56.837Z,0.70
2018-08-04T02:40:25.875Z,0.63
2018-08-04T02:42:54.667Z,0.70
2018-08-04T02:45:23.402Z,0.70
2018-08-04T02:47:52.206Z,0.80
2018-08-04T02:50:21.028Z,0.80
2018-08-04T02:52:49.862Z,0.80
2018-08-04T02:55:18.638Z,0.60
2018-08-04T02:57:47.407Z,0.77
2018-08-04T03:00:16.274Z,0.80
2018-08-04T03:02:45.247Z,0.80
2018-08-04T03:05:13.802Z,0.77
2018-08-04T03:07:42.496Z,0.70
2018-08-04T03:10:11.285Z,0.80
2018-08-04T03:12:40.124Z,0.80
2018-08-04T03:15:08.903Z,0.70
2018-08-04T03:17:37.480Z,0.73
2018-08-04T03:20:07.216Z,0.60
2018-08-04T03:22:36.226Z,0.73
2018-08-04T03:25:05.304Z,0.80
2018-08-04T03:27:34.103Z,0.80
2018-08-04T03:30:02.961Z,0.80
2018-08-04T03:32:31.707Z,0.80
2018-08-04T03:35:00.636Z,0.70
2018-08-04T03:37:29.429Z,0.70
2018-08-04T03:39:58.259Z,0.70
2018-08-04T03:42:27.068Z,0.80
2018-08-04T03:44:55.885Z,0.70
2018-08-04T03:47:24.768Z,0.87
2018-08-04T03:49:53.632Z,0.73
2018-08-04T03:52:22.959Z,0.80
2018-08-04T03:54:51.694Z,0.73
2018-08-04T03:57:20.506Z,0.70
2018-08-04T03:59:49.089Z,0.90
2018-08-04T04:02:17.762Z,0.80
2018-08-04T04:04:46.587Z,0.80
2018-08-04T04:07:15.373Z,0.70
2018-08-04T04:09:44.199Z,0.60
2018-08-04T04:12:13.163Z,0.70
2018-08-04T04:14:41.933Z,0.70
2018-08-04T04:17:15.554Z,0.60
2018-08-04T04:19:44.440Z,0.60
2018-08-04T04:22:13.270Z,0.70
2018-08-04T04:24:42.698Z,0.60
2018-08-04T04:27:11.555Z,0.60
2018-08-04T04:29:40.341Z,0.80
2018-08-04T04:32:09.132Z,0.73
2018-08-04T04:34:37.936Z,0.60
2018-08-04T04:37:06.761Z,0.60
2018-08-04T04:39:35.652Z,0.60
2018-08-04T04:42:04.451Z,0.70
2018-08-04T04:44:33.283Z,0.80
2018-08-04T04:47:02.146Z,0.70
2018-08-04T04:49:30.956Z,0.60
2018-08-04T04:51:59.738Z,0.60
2018-08-04T04:54:28.686Z,0.60
2018-08-04T04:56:57.468Z,0.70
2018-08-04T04:59:26.258Z,0.90
2018-08-04T05:01:55.164Z,0.90
2018-08-04T05:04:23.933Z,0.60
2018-08-04T05:06:52.822Z,0.70
2018-08-04T05:09:21.938Z,0.70
2018-08-04T05:11:50.808Z,0.80
2018-08-04T05:14:19.600Z,0.63
2018-08-04T05:16:48.399Z,0.60
2018-08-04T05:19:17.249Z,0.70
2018-08-04T05:21:46.577Z,0.67
2018-08-04T05:24:15.869Z,0.60
2018-08-04T05:26:44.659Z,0.60
2018-08-04T05:29:13.859Z,0.70
2018-08-04T05:31:42.902Z,0.70
2018-08-04T05:34:11.746Z,0.70
2018-08-04T05:36:40.162Z,0.60
2018-08-04T05:39:10.701Z,0.70
2018-08-04T05:41:39.544Z,0.60
2018-08-04T05:44:08.352Z,0.60
2018-08-04T05:46:42.054Z,0.70
2018-08-04T05:49:10.861Z,0.70
2018-08-04T05:51:39.654Z,0.80
2018-08-04T05:54:08.495Z,0.60
2018-08-04T05:56:37.362Z,0.70
2018-08-04T05:59:06.095Z,0.60
2018-08-04T06:01:34.890Z,0.73
2018-08-04T06:04:04.008Z,0.70
2018-08-04T06:06:32.835Z,0.50
2018-08-04T06:09:01.666Z,0.80
2018-08-04T06:11:30.466Z,0.70
2018-08-04T06:13:59.307Z,0.50
2018-08-04T06:16:28.497Z,0.70
2018-08-04T06:18:57.294Z,0.70
2018-08-04T06:21:26.196Z,0.63
2018-08-04T06:23:54.966Z,0.70
2018-08-04T06:26:23.753Z,0.70
2018-08-04T06:28:52.875Z,0.70
2018-08-04T06:31:21.678Z,0.70
2018-08-04T06:33:50.538Z,0.70
2018-08-04T06:36:19.382Z,0.53
2018-08-04T06:38:48.198Z,0.77
2018-08-04T06:41:17.002Z,0.50
2018-08-04T06:43:45.965Z,0.73
2018-08-04T06:46:14.792Z,0.70
2018-08-04T06:48:44.126Z,0.60
2018-08-04T06:51:13.060Z,0.60
2018-08-04T06:53:42.003Z,0.60
2018-08-04T06:56:10.806Z,0.60
2018-08-04T06:58:39.647Z,0.70
2018-08-04T07:01:08.519Z,0.70
2018-08-04T07:03:37.550Z,0.60
2018-08-04T07:06:06.509Z,0.50
2018-08-04T07:08:35.491Z,0.70
2018-08-04T07:11:04.302Z,0.70
2018-08-04T07:13:33.101Z,0.73
2018-08-04T07:16:01.890Z,0.80
2018-08-04T07:18:30.698Z,0.43
2018-08-04T07:21:04.371Z,0.57
2018-08-04T07:23:33.151Z,0.70
2018-08-04T07:26:02.052Z,0.70
2018-08-04T07:28:30.911Z,0.70
2018-08-04T07:30:59.807Z,0.60
2018-08-04T07:33:28.614Z,0.80
2018-08-04T07:35:57.419Z,0.70
2018-08-04T07:38:26.198Z,0.70
2018-08-04T07:40:55.086Z,0.70
2018-08-04T07:43:23.855Z,0.60
2018-08-04T07:45:52.671Z,0.60
2018-08-04T07:48:21.446Z,0.57
2018-08-04T07:50:50.270Z,0.70
2018-08-04T07:53:18.836Z,0.60
2018-08-04T07:55:47.580Z,0.80
2018-08-04T07:58:16.485Z,0.60
2018-08-04T08:00:45.273Z,0.63
2018-08-04T08:03:14.141Z,0.70
2018-08-04T08:05:42.975Z,0.63
2018-08-04T08:08:11.754Z,0.63
2018-08-04T08:10:40.767Z,0.70
2018-08-04T08:13:09.506Z,0.57
2018-08-04T08:15:38.298Z,0.70
2018-08-04T08:18:07.134Z,0.70
2018-08-04T08:20:35.906Z,0.57
2018-08-04T08:23:04.692Z,0.53
2018-08-04T08:25:33.466Z,0.70
2018-08-04T08:28:02.245Z,0.70
2018-08-04T08:30:31.039Z,0.60
2018-08-04T08:32:59.834Z,0.60
2018-08-04T08:35:28.722Z,0.63
2018-08-04T08:37:57.613Z,0.70
2018-08-04T08:40:26.569Z,0.80
2018-08-04T08:42:55.298Z,0.60
2018-08-04T08:45:24.074Z,0.70
2018-08-04T08:47:52.903Z,0.70
2018-08-04T08:50:21.717Z,0.53
2018-08-04T08:52:51.094Z,0.50
2018-08-04T08:55:19.906Z,0.80
2018-08-04T08:57:48.694Z,0.60
2018-08-04T09:00:19.372Z,0.60
2018-08-04T09:02:48.248Z,0.40
2018-08-04T09:05:17.104Z,0.50
2018-08-04T09:07:45.892Z,0.60
2018-08-04T09:10:14.623Z,0.50
2018-08-04T09:12:43.605Z,0.60
2018-08-04T09:15:12.437Z,0.60
2018-08-04T09:17:41.197Z,0.60
2018-08-04T09:20:15.444Z,0.70
2018-08-04T09:22:49.080Z,0.60
2018-08-04T09:25:17.922Z,0.70
2018-08-04T09:27:46.785Z,0.60
2018-08-04T09:30:15.628Z,0.50
2018-08-04T09:32:44.872Z,0.60
2018-08-04T09:35:14.853Z,0.50
2018-08-04T09:37:43.849Z,0.80
2018-08-04T09:40:18.945Z,0.53
2018-08-04T09:42:47.757Z,0.70
2018-08-04T09:45:16.293Z,0.70
2018-08-04T09:47:47.022Z,0.42
2018-08-04T09:50:15.826Z,0.63
2018-08-04T09:52:44.444Z,0.40
2018-08-04T09:55:13.231Z,0.57
2018-08-04T09:57:42.577Z,0.70
2018-08-04T10:00:17.921Z,0.50
2018-08-04T10:02:46.970Z,0.50
2018-08-04T10:05:15.903Z,0.50
2018-08-04T10:07:44.569Z,0.70
2018-08-04T10:10:13.387Z,0.70
2018-08-04T10:12:42.162Z,0.40
2018-08-04T10:15:11.516Z,0.57
2018-08-04T10:17:40.762Z,0.60
2018-08-04T10:20:10.998Z,0.60
2018-08-04T10:22:39.764Z,0.60
2018-08-04T10:25:09.026Z,0.60
2018-08-04T10:27:37.815Z,0.70
2018-08-04T10:30:08.595Z,0.63
2018-08-04T10:32:37.453Z,0.50
2018-08-04T10:35:06.586Z,0.60
2018-08-04T10:37:35.426Z,0.70
2018-08-04T10:40:09.170Z,0.80
2018-08-04T10:42:37.944Z,0.80
2018-08-04T10:45:07.154Z,0.77
2018-08-04T10:47:36.010Z,0.50
2018-08-04T10:50:05.565Z,0.50
2018-08-04T10:52:34.803Z,0.60
2018-08-04T10:55:03.600Z,0.60
2018-08-04T10:57:32.584Z,0.70
2018-08-04T11:00:01.470Z,0.60
2018-08-04T11:02:30.310Z,0.60
2018-08-04T11:04:59.109Z,0.70
2018-08-04T11:07:27.933Z,0.67
2018-08-04T11:09:56.704Z,0.70
2018-08-04T11:12:25.555Z,0.60
2018-08-04T11:14:54.511Z,0.50
2018-08-04T11:17:23.646Z,0.70
2018-08-04T11:19:52.485Z,0.50
2018-08-04T11:22:21.332Z,0.60
2018-08-04T11:24:50.113Z,0.60
2018-08-04T11:27:18.895Z,0.60
2018-08-04T11:29:47.720Z,0.60
2018-08-04T11:32:16.478Z,0.53
2018-08-04T11:34:45.313Z,0.60
2018-08-04T11:37:14.149Z,0.73
2018-08-04T11:39:42.964Z,0.50
2018-08-04T11:42:11.905Z,0.60
2018-08-04T11:44:40.703Z,0.57
2018-08-04T11:47:09.498Z,0.50
2018-08-04T11:49:38.285Z,0.60
2018-08-04T11:52:07.047Z,0.60
2018-08-04T11:54:35.829Z,0.63
2018-08-04T11:57:04.638Z,0.60
2018-08-04T11:59:33.741Z,0.40
2018-08-04T12:02:02.646Z,0.50
2018-08-04T12:04:31.384Z,0.63
2018-08-04T12:07:00.166Z,0.60
2018-08-04T12:09:28.974Z,0.50
2018-08-04T12:11:57.814Z,0.68
2018-08-04T12:14:26.603Z,0.70
2018-08-04T12:16:55.434Z,0.70
2018-08-04T12:19:24.253Z,0.50
2018-08-04T12:21:53.076Z,0.50
2018-08-04T12:24:21.842Z,0.50
2018-08-04T12:26:50.668Z,0.53
2018-08-04T12:29:19.563Z,0.60
2018-08-04T12:31:48.297Z,0.50
2018-08-04T12:34:17.080Z,0.70
2018-08-04T12:36:45.925Z,0.50
2018-08-04T12:39:14.809Z,0.53
2018-08-04T12:41:43.636Z,0.60
2018-08-04T12:44:12.457Z,0.60
2018-08-04T12:46:41.803Z,0.62
2018-08-04T12:49:10.591Z,0.60
2018-08-04T12:51:39.623Z,0.55
2018-08-04T12:54:08.769Z,0.65
2018-08-04T12:56:37.545Z,0.60
2018-08-04T12:59:06.353Z,0.60
2018-08-04T13:01:35.231Z,0.67
2018-08-04T13:04:03.958Z,0.53
2018-08-04T13:06:32.803Z,0.60
2018-08-04T13:09:01.694Z,0.60
2018-08-04T13:11:30.507Z,0.60
2018-08-04T13:13:59.403Z,0.60
2018-08-04T13:16:28.197Z,0.50
2018-08-04T13:18:56.959Z,0.55
2018-08-04T13:21:25.749Z,0.50
2018-08-04T13:23:54.562Z,0.60
2018-08-04T13:26:23.354Z,0.60
2018-08-04T13:28:52.403Z,0.50
2018-08-04T13:31:21.190Z,0.40
2018-08-04T13:33:49.995Z,0.40
2018-08-04T13:36:18.808Z,0.40
2018-08-04T13:38:47.624Z,0.53
2018-08-04T13:41:16.406Z,0.50
2018-08-04T13:43:45.386Z,0.60
2018-08-04T13:46:14.246Z,0.50
2018-08-04T13:48:43.082Z,0.60
2018-08-04T13:51:11.879Z,0.40
2018-08-04T13:53:40.690Z,0.70
2018-08-04T13:56:09.617Z,0.50
2018-08-04T13:58:38.441Z,0.47
2018-08-04T14:01:07.238Z,0.50
2018-08-04T14:03:36.055Z,0.50
2018-08-04T14:06:05.051Z,0.57
2018-08-04T14:08:38.770Z,0.60
2018-08-04T14:11:07.670Z,0.45
2018-08-04T14:13:36.686Z,0.60
2018-08-04T14:16:05.360Z,0.60
2018-08-04T14:18:34.111Z,0.60
2018-08-04T14:21:03.129Z,0.40
2018-08-04T14:23:32.090Z,0.57
2018-08-04T14:26:00.892Z,0.65
2018-08-04T14:28:29.768Z,0.50
2018-08-04T14:30:58.497Z,0.55
2018-08-04T14:33:27.321Z,0.60
2018-08-04T14:35:55.918Z,0.65
2018-08-04T14:38:24.650Z,0.55
2018-08-04T14:40:53.601Z,0.50
2018-08-04T14:43:22.147Z,0.50
2018-08-04T14:45:50.857Z,0.50
2018-08-04T14:48:19.786Z,0.50
2018-08-04T14:50:48.598Z,0.60
2018-08-04T14:53:17.425Z,0.50
2018-08-04T14:55:46.170Z,0.60
2018-08-04T14:58:14.998Z,0.50
2018-08-04T15:00:43.622Z,0.65
2018-08-04T15:03:12.695Z,0.60
2018-08-04T15:05:41.513Z,0.40
2018-08-04T15:08:10.272Z,0.37
2018-08-04T15:10:39.144Z,0.50
2018-08-04T15:13:07.994Z,0.50
2018-08-04T15:15:36.926Z,0.50
2018-08-04T15:18:05.708Z,0.53
2018-08-04T15:20:34.530Z,0.50
2018-08-04T15:23:03.402Z,0.70
2018-08-04T15:25:32.217Z,0.70
2018-08-04T15:28:01.063Z,0.57
2018-08-04T15:30:29.857Z,0.60
2018-08-04T15:33:03.484Z,0.57
2018-08-04T15:35:32.307Z,0.50
2018-08-04T15:38:01.173Z,0.50
2018-08-04T15:40:29.999Z,0.60
2018-08-04T15:42:58.921Z,0.60
2018-08-04T15:45:27.754Z,0.68
2018-08-04T15:47:56.552Z,0.70
2018-08-04T15:50:25.762Z,0.60
2018-08-04T15:52:54.573Z,0.65
2018-08-04T15:55:23.422Z,0.80
2018-08-04T15:57:52.198Z,0.50
2018-08-04T16:00:21.009Z,0.80
2018-08-04T16:02:49.826Z,0.60
2018-08-04T16:05:18.620Z,0.50
2018-08-04T16:07:47.510Z,0.60
2018-08-04T16:10:16.061Z,0.60
2018-08-04T16:12:44.766Z,0.50
2018-08-04T16:15:13.990Z,0.50
2018-08-04T16:17:42.810Z,0.70
2018-08-04T16:20:14.794Z,0.60
2018-08-04T16:22:43.937Z,0.60
2018-08-04T16:25:13.234Z,0.60
2018-08-04T16:27:42.462Z,0.50
2018-08-04T16:30:11.577Z,0.30
2018-08-04T16:32:43.412Z,0.60
2018-08-04T16:35:12.194Z,0.50
2018-08-04T16:37:41.086Z,0.40
2018-08-04T16:40:09.871Z,0.40
2018-08-04T16:42:38.690Z,0.45
2018-08-04T16:45:07.513Z,0.45
2018-08-04T16:47:36.328Z,0.57
2018-08-04T16:50:05.194Z,0.40
2018-08-04T16:52:34.072Z,0.40
2018-08-04T16:55:02.858Z,0.50
2018-08-04T16:57:36.280Z,0.50
2018-08-04T17:00:05.460Z,0.57
2018-08-04T17:02:34.263Z,0.50
2018-08-04T17:05:03.395Z,0.60
2018-08-04T17:07:32.234Z,0.40
2018-08-04T17:10:01.116Z,0.40
2018-08-04T17:12:29.962Z,0.60
2018-08-04T17:14:58.769Z,0.50
2018-08-04T17:17:27.576Z,0.42
2018-08-04T17:19:56.371Z,0.50
2018-08-04T17:22:25.210Z,0.42
2018-08-04T17:24:54.120Z,0.50
2018-08-04T17:27:22.942Z,0.40
2018-08-04T17:29:51.741Z,0.40
2018-08-04T17:32:20.713Z,0.40
2018-08-04T17:34:49.310Z,0.50
2018-08-04T17:37:18.006Z,0.35
2018-08-04T17:39:46.767Z,0.40
2018-08-04T17:42:15.801Z,0.42
2018-08-04T17:44:44.862Z,0.47
2018-08-04T17:47:13.789Z,0.55
2018-08-04T17:49:43.613Z,0.40
2018-08-04T17:52:12.479Z,0.40
2018-08-04T17:54:41.287Z,0.42
2018-08-04T17:57:10.114Z,0.40
2018-08-04T17:59:38.853Z,0.40
2018-08-04T18:02:07.713Z,0.40
2018-08-04T18:04:36.661Z,0.50
2018-08-04T18:07:05.523Z,0.50
2018-08-04T18:09:34.335Z,0.50
2018-08-04T18:12:03.258Z,0.40
2018-08-04T18:14:32.249Z,0.40
2018-08-04T18:17:06.014Z,0.53
2018-08-04T18:19:34.840Z,0.50
2018-08-04T18:22:03.629Z,0.47
2018-08-04T18:24:32.443Z,0.60
2018-08-04T18:27:01.260Z,0.50
2018-08-04T18:29:30.055Z,0.40
2018-08-04T18:31:59.039Z,0.40
2018-08-04T18:34:27.874Z,0.50
2018-08-04T18:36:56.694Z,0.40
2018-08-04T18:39:25.488Z,0.50
2018-08-04T18:41:54.292Z,0.40
2018-08-04T18:44:23.134Z,0.40
2018-08-04T18:46:52.050Z,0.60
2018-08-04T18:49:20.917Z,0.50
2018-08-04T18:51:49.799Z,0.30
2018-08-04T18:54:18.685Z,0.50
2018-08-04T18:56:47.515Z,0.68
2018-08-04T18:59:16.378Z,0.50
2018-08-04T19:01:45.231Z,0.42
2018-08-04T19:04:14.014Z,0.40
2018-08-04T19:06:43.142Z,0.50
2018-08-04T19:09:12.643Z,0.60
2018-08-04T19:11:46.815Z,0.50
2018-08-04T19:14:15.602Z,0.40
2018-08-04T19:16:44.722Z,0.53
2018-08-04T19:19:13.547Z,0.50
2018-08-04T19:21:42.472Z,0.43
2018-08-04T19:24:11.253Z,0.35
2018-08-04T19:26:40.142Z,0.50
2018-08-04T19:29:08.959Z,0.40
2018-08-04T19:31:38.086Z,0.40
2018-08-04T19:34:06.901Z,0.70
2018-08-04T19:36:35.698Z,0.50
2018-08-04T19:39:06.855Z,0.60
2018-08-04T19:41:35.635Z,0.50
2018-08-04T19:44:04.426Z,0.50
2018-08-04T19:46:33.257Z,0.50
2018-08-04T19:49:02.263Z,0.50
2018-08-04T19:51:31.345Z,0.40
2018-08-04T19:54:01.472Z,0.50
2018-08-04T19:56:30.318Z,0.40
2018-08-04T19:58:58.936Z,0.50
2018-08-04T20:01:27.639Z,0.50
2018-08-04T20:03:56.862Z,0.50
2018-08-04T20:06:25.665Z,0.70
2018-08-04T20:08:54.451Z,0.50
2018-08-04T20:11:23.295Z,0.50
2018-08-04T20:13:52.311Z,0.40
2018-08-04T20:16:21.072Z,0.60
2018-08-04T20:18:49.906Z,0.40
2018-08-04T20:21:18.750Z,0.40
2018-08-04T20:23:47.554Z,0.57
2018-08-04T20:26:16.377Z,0.50
2018-08-04T20:28:45.151Z,0.50
2018-08-04T20:31:13.991Z,0.40
2018-08-04T20:33:43.496Z,0.50
2018-08-04T20:36:12.326Z,0.50
2018-08-04T20:38:41.173Z,0.60
2018-08-04T20:41:09.978Z,0.53
2018-08-04T20:43:38.863Z,0.40
2018-08-04T20:46:07.663Z,0.50
2018-08-04T20:48:36.967Z,0.60
2018-08-04T20:51:05.828Z,0.40
2018-08-04T20:53:34.643Z,0.53
2018-08-04T20:56:08.251Z,0.47
2018-08-04T20:58:37.780Z,0.60
2018-08-04T21:01:18.850Z,0.63
2018-08-04T21:03:47.684Z,0.40
2018-08-04T21:06:16.546Z,0.50
2018-08-04T21:08:45.293Z,0.50
2018-08-04T21:11:14.315Z,0.50
2018-08-04T21:13:43.794Z,0.50
2018-08-04T21:16:12.594Z,0.40
2018-08-04T21:18:41.435Z,0.40
2018-08-04T21:21:10.325Z,0.50
2018-08-04T21:23:39.141Z,0.40
2018-08-04T21:26:08.002Z,0.40
2018-08-04T21:28:36.522Z,0.60
